createdAt,value
2018-04-15T00:00:11.000Z,29
2018-04-15T00:02:11.000Z,29
2018-04-15T00:04:11.000Z,29
2018-04-15T00:05:11.000Z,28.9
2018-04-15T00:07:11.000Z,29
2018-04-15T00:08:11.000Z,29
2018-04-15T00:09:11.000Z,29
2018-04-15T00:10:11.000Z,29
2018-04-15T00:12:11.000Z,29
2018-04-15T00:14:11.000Z,29
2018-04-15T00:16:11.000Z,29
2018-04-15T00:17:11.000Z,29
2018-04-15T00:19:11.000Z,29
2018-04-15T00:20:11.000Z,29
2018-04-15T00:22:11.000Z,29
2018-04-15T00:24:11.000Z,29
2018-04-15T00:26:11.000Z,28.9
2018-04-15T00:27:11.000Z,28.9
2018-04-15T00:28:11.000Z,29
2018-04-15T00:30:11.000Z,29
2018-04-15T00:32:11.000Z,28.9
2018-04-15T00:34:11.000Z,28.8
2018-04-15T00:36:11.000Z,28.8
2018-04-15T00:37:11.000Z,28.8
2018-04-15T00:38:55.000Z,28.9
2018-04-15T00:40:11.000Z,28.9
2018-04-15T00:42:11.000Z,28.9
2018-04-15T00:43:11.000Z,28.9
2018-04-15T00:45:11.000Z,28.8
2018-04-15T00:47:11.000Z,28.8
2018-04-15T00:48:11.000Z,28.8
2018-04-15T00:50:11.000Z,28.8
2018-04-15T00:51:11.000Z,28.9
2018-04-15T00:52:55.000Z,28.9
2018-04-15T00:54:11.000Z,28.9
2018-04-15T00:55:11.000Z,28.9
2018-04-15T00:56:11.000Z,28.9
2018-04-15T00:58:11.000Z,28.9
2018-04-15T00:59:11.000Z,28.9
2018-04-15T01:01:11.000Z,28.9
2018-04-15T01:02:11.000Z,28.9
2018-04-15T01:03:11.000Z,29
2018-04-15T01:05:11.000Z,29
2018-04-15T01:06:55.000Z,28.9
2018-04-15T01:08:11.000Z,28.9
2018-04-15T01:09:11.000Z,28.8
2018-04-15T01:10:11.000Z,28.8
2018-04-15T01:12:11.000Z,28.8
2018-04-15T01:13:11.000Z,28.8
2018-04-15T01:15:11.000Z,28.9
2018-04-15T01:17:11.000Z,28.8
2018-04-15T01:19:11.000Z,28.7
2018-04-15T01:20:11.000Z,28.7
2018-04-15T01:21:11.000Z,28.8
2018-04-15T01:23:11.000Z,28.8
2018-04-15T01:24:11.000Z,28.8
2018-04-15T01:25:11.000Z,28.9
2018-04-15T01:26:11.000Z,28.9
2018-04-15T01:28:11.000Z,29
2018-04-15T01:29:55.000Z,29
2018-04-15T01:31:11.000Z,28.9
2018-04-15T01:33:11.000Z,28.8
2018-04-15T01:34:11.000Z,28.8
2018-04-15T01:36:11.000Z,28.8
2018-04-15T01:37:11.000Z,28.9
2018-04-15T01:38:11.000Z,28.9
2018-04-15T01:40:11.000Z,28.9
2018-04-15T01:41:11.000Z,28.9
2018-04-15T01:42:11.000Z,28.9
2018-04-15T01:44:11.000Z,28.9
2018-04-15T01:45:11.000Z,29
2018-04-15T01:47:11.000Z,29
2018-04-15T01:49:11.000Z,29
2018-04-15T01:50:11.000Z,29
2018-04-15T01:51:11.000Z,29
2018-04-15T01:53:11.000Z,29
2018-04-15T01:54:11.000Z,28.9
2018-04-15T01:56:11.000Z,28.9
2018-04-15T01:57:11.000Z,28.9
2018-04-15T01:58:11.000Z,28.9
2018-04-15T02:00:11.000Z,28.9
2018-04-15T02:02:11.000Z,28.8
2018-04-15T02:04:11.000Z,28.8
2018-04-15T02:05:11.000Z,28.8
2018-04-15T02:06:11.000Z,28.8
2018-04-15T02:08:11.000Z,28.8
2018-04-15T02:09:11.000Z,28.7
2018-04-15T02:11:11.000Z,28.7
2018-04-15T02:12:11.000Z,28.7
2018-04-15T02:13:11.000Z,28.8
2018-04-15T02:14:11.000Z,28.8
2018-04-15T02:15:11.000Z,28.9
2018-04-15T02:17:11.000Z,28.9
2018-04-15T02:18:11.000Z,28.9
2018-04-15T02:19:11.000Z,28.9
2018-04-15T02:21:11.000Z,28.9
2018-04-15T02:23:11.000Z,28.8
2018-04-15T02:25:11.000Z,28.7
2018-04-15T02:27:11.000Z,28.7
2018-04-15T02:28:11.000Z,28.7
2018-04-15T02:30:11.000Z,28.7
2018-04-15T02:31:11.000Z,28.7
2018-04-15T02:33:11.000Z,28.8
2018-04-15T02:34:56.000Z,28.8
2018-04-15T02:36:11.000Z,28.8
2018-04-15T02:38:11.000Z,28.8
2018-04-15T02:39:56.000Z,28.7
2018-04-15T02:41:11.000Z,28.7
2018-04-15T02:43:11.000Z,28.7
2018-04-15T02:44:11.000Z,28.7
2018-04-15T02:45:11.000Z,28.8
2018-04-15T02:47:11.000Z,28.8
2018-04-15T02:48:11.000Z,28.8
2018-04-15T02:50:11.000Z,28.8
2018-04-15T02:51:11.000Z,28.8
2018-04-15T02:52:11.000Z,28.9
2018-04-15T02:53:11.000Z,29
2018-04-15T02:55:11.000Z,29
2018-04-15T02:57:11.000Z,29
2018-04-15T02:58:11.000Z,29
2018-04-15T02:59:11.000Z,29
2018-04-15T03:01:11.000Z,29
2018-04-15T03:03:11.000Z,28.9
2018-04-15T03:04:11.000Z,28.9
2018-04-15T03:06:11.000Z,28.9
2018-04-15T03:07:56.000Z,28.9
2018-04-15T03:09:11.000Z,28.8
2018-04-15T03:10:11.000Z,28.8
2018-04-15T03:12:11.000Z,28.8
2018-04-15T03:13:11.000Z,28.8
2018-04-15T03:14:11.000Z,28.8
2018-04-15T03:16:11.000Z,28.8
2018-04-15T03:18:11.000Z,28.7
2018-04-15T03:19:11.000Z,28.7
2018-04-15T03:21:11.000Z,28.7
2018-04-15T03:22:11.000Z,28.7
2018-04-15T03:24:11.000Z,28.7
2018-04-15T03:26:11.000Z,28.7
2018-04-15T03:27:11.000Z,28.7
2018-04-15T03:29:11.000Z,28.7
2018-04-15T03:30:11.000Z,28.8
2018-04-15T03:31:11.000Z,28.8
2018-04-15T03:33:11.000Z,28.9
2018-04-15T03:35:11.000Z,28.9
2018-04-15T03:36:11.000Z,28.9
2018-04-15T03:38:11.000Z,28.9
2018-04-15T03:39:11.000Z,28.9
2018-04-15T03:40:11.000Z,28.9
2018-04-15T03:42:11.000Z,28.9
2018-04-15T03:43:11.000Z,28.9
2018-04-15T03:44:11.000Z,28.9
2018-04-15T03:45:56.000Z,29
2018-04-15T03:47:11.000Z,28.9
2018-04-15T03:48:11.000Z,28.9
2018-04-15T03:49:11.000Z,29
2018-04-15T03:50:11.000Z,29
2018-04-15T03:51:11.000Z,29
2018-04-15T03:52:11.000Z,29
2018-04-15T03:53:11.000Z,29.1
2018-04-15T03:55:11.000Z,29
2018-04-15T03:56:11.000Z,29
2018-04-15T03:57:11.000Z,29
2018-04-15T03:58:11.000Z,29
2018-04-15T04:00:11.000Z,29
2018-04-15T04:01:11.000Z,29
2018-04-15T04:03:11.000Z,29
2018-04-15T04:04:56.000Z,29
2018-04-15T04:06:11.000Z,28.9
2018-04-15T04:07:11.000Z,28.9
2018-04-15T04:09:11.000Z,28.9
2018-04-15T04:10:11.000Z,28.9
2018-04-15T04:11:11.000Z,28.9
2018-04-15T04:12:11.000Z,29
2018-04-15T04:13:11.000Z,29
2018-04-15T04:15:11.000Z,28.9
2018-04-15T04:16:11.000Z,28.9
2018-04-15T04:17:11.000Z,28.9
2018-04-15T04:18:11.000Z,28.9
2018-04-15T04:19:56.000Z,29
2018-04-15T04:21:11.000Z,28.9
2018-04-15T04:22:11.000Z,28.9
2018-04-15T04:24:11.000Z,28.9
2018-04-15T04:26:11.000Z,28.9
2018-04-15T04:27:11.000Z,28.8
2018-04-15T04:29:11.000Z,28.9
2018-04-15T04:31:11.000Z,28.8
2018-04-15T04:32:11.000Z,28.8
2018-04-15T04:34:11.000Z,28.8
2018-04-15T04:35:11.000Z,28.7
2018-04-15T04:36:11.000Z,28.8
2018-04-15T04:37:11.000Z,28.9
2018-04-15T04:39:11.000Z,28.9
2018-04-15T04:40:11.000Z,28.9
2018-04-15T04:42:11.000Z,28.9
2018-04-15T04:43:11.000Z,28.9
2018-04-15T04:44:11.000Z,29
2018-04-15T04:45:56.000Z,29
2018-04-15T04:47:11.000Z,28.9
2018-04-15T04:49:11.000Z,28.9
2018-04-15T04:50:11.000Z,28.9
2018-04-15T04:52:11.000Z,28.9
2018-04-15T04:54:11.000Z,28.8
2018-04-15T04:55:11.000Z,28.8
2018-04-15T04:57:11.000Z,28.8
2018-04-15T04:59:11.000Z,28.7
2018-04-15T05:00:11.000Z,28.6
2018-04-15T05:02:11.000Z,28.6
2018-04-15T05:04:11.000Z,28.6
2018-04-15T05:05:11.000Z,28.6
2018-04-15T05:07:11.000Z,28.7
2018-04-15T05:08:11.000Z,28.7
2018-04-15T05:10:11.000Z,28.7
2018-04-15T05:12:11.000Z,28.7
2018-04-15T05:13:11.000Z,28.7
2018-04-15T05:14:11.000Z,28.8
2018-04-15T05:15:11.000Z,28.8
2018-04-15T05:16:11.000Z,28.9
2018-04-15T05:18:11.000Z,28.9
2018-04-15T05:20:11.000Z,28.8
2018-04-15T05:22:11.000Z,28.7
2018-04-15T05:23:11.000Z,28.7
2018-04-15T05:24:11.000Z,28.7
2018-04-15T05:26:11.000Z,28.7
2018-04-15T05:27:56.000Z,28.7
2018-04-15T06:04:30.000Z,26.5
2018-04-15T06:06:15.000Z,26.8
2018-04-15T06:07:30.000Z,27
2018-04-15T06:09:30.000Z,27.3
2018-04-15T06:10:30.000Z,27.5
2018-04-15T06:11:30.000Z,27.6
2018-04-15T06:13:30.000Z,27.8
2018-04-15T06:15:30.000Z,28
2018-04-15T06:17:30.000Z,28.1
2018-04-15T06:19:30.000Z,28.2
2018-04-15T06:21:30.000Z,28.3
2018-04-15T06:23:30.000Z,28.3
2018-04-15T06:24:30.000Z,28.3
2018-04-15T06:25:30.000Z,28.4
2018-04-15T06:26:30.000Z,28.4
2018-04-15T06:28:30.000Z,28.5
2018-04-15T06:29:30.000Z,28.6
2018-04-15T06:31:30.000Z,28.6
2018-04-15T06:33:30.000Z,28.7
2018-04-15T06:37:16.000Z,28.3
2018-04-15T06:39:16.000Z,28.3
2018-04-15T06:40:16.000Z,28.3
2018-04-15T06:42:16.000Z,28.5
2018-04-15T06:43:16.000Z,28.5
2018-04-15T06:45:16.000Z,28.6
2018-04-15T06:47:16.000Z,28.6
2018-04-15T06:49:16.000Z,28.7
2018-04-15T06:50:16.000Z,28.7
2018-04-15T06:52:16.000Z,28.8
2018-04-15T06:53:16.000Z,28.8
2018-04-15T06:55:16.000Z,28.8
2018-04-15T06:56:16.000Z,28.8
2018-04-15T06:58:16.000Z,28.9
2018-04-15T07:00:16.000Z,28.9
2018-04-15T07:02:16.000Z,28.9
2018-04-15T07:04:16.000Z,28.8
2018-04-15T07:06:16.000Z,28.8
2018-04-15T07:07:16.000Z,28.9
2018-04-15T07:08:16.000Z,28.9
2018-04-15T07:10:16.000Z,29
2018-04-15T07:11:16.000Z,29.1
2018-04-15T07:13:16.000Z,29.2
2018-04-15T07:15:01.000Z,29.3
2018-04-15T07:16:16.000Z,29.3
2018-04-15T07:18:16.000Z,29.3
2018-04-15T07:20:16.000Z,29.3
2018-04-15T07:22:16.000Z,29.3
2018-04-15T07:24:16.000Z,29.2
2018-04-15T07:25:16.000Z,29.2
2018-04-15T07:27:16.000Z,29.3
2018-04-15T07:28:16.000Z,29.3
2018-04-15T07:30:16.000Z,29.4
2018-04-15T07:31:16.000Z,29.5
2018-04-15T07:33:16.000Z,29.5
2018-04-15T07:34:16.000Z,29.5
2018-04-15T07:36:16.000Z,29.6
2018-04-15T07:37:16.000Z,29.6
2018-04-15T07:39:16.000Z,29.7
2018-04-15T07:40:16.000Z,29.8
2018-04-15T07:42:16.000Z,29.8
2018-04-15T07:43:16.000Z,29.9
2018-04-15T07:45:16.000Z,30
2018-04-15T07:47:01.000Z,30
2018-04-15T07:48:16.000Z,29.9
2018-04-15T07:50:16.000Z,29.9
2018-04-15T07:51:16.000Z,29.9
2018-04-15T07:52:16.000Z,30
2018-04-15T07:54:16.000Z,30
2018-04-15T07:56:16.000Z,30.1
2018-04-15T07:58:16.000Z,30.3
2018-04-15T08:00:16.000Z,30.4
2018-04-15T08:02:16.000Z,30.4
2018-04-15T08:04:16.000Z,30.4
2018-04-15T08:05:16.000Z,30.5
2018-04-15T08:06:16.000Z,30.5
2018-04-15T08:08:16.000Z,30.7
2018-04-15T08:09:16.000Z,30.8
2018-04-15T08:11:16.000Z,31
2018-04-15T08:12:16.000Z,31
2018-04-15T08:14:16.000Z,31
2018-04-15T08:16:16.000Z,31.1
2018-04-15T08:17:16.000Z,31.1
2018-04-15T08:18:16.000Z,31.2
2018-04-15T08:19:16.000Z,31.2
2018-04-15T08:21:16.000Z,31.1
2018-04-15T08:23:16.000Z,31.2
2018-04-15T08:24:16.000Z,31.4
2018-04-15T08:25:16.000Z,31.6
2018-04-15T08:27:16.000Z,31.9
2018-04-15T08:28:16.000Z,31.9
2018-04-15T08:30:16.000Z,31.7
2018-04-15T08:32:01.000Z,31.6
2018-04-15T08:33:16.000Z,31.5
2018-04-15T08:34:16.000Z,31.4
2018-04-15T08:35:16.000Z,31.4
2018-04-15T08:37:16.000Z,31.5
2018-04-15T08:38:16.000Z,31.5
2018-04-15T08:39:16.000Z,31.5
2018-04-15T08:40:16.000Z,31.5
2018-04-15T08:42:16.000Z,31.7
2018-04-15T08:43:16.000Z,31.8
2018-04-15T08:44:16.000Z,32.1
2018-04-15T08:45:16.000Z,32.7
2018-04-15T08:46:16.000Z,33.4
2018-04-15T08:48:16.000Z,34.3
2018-04-15T08:50:16.000Z,34.2
2018-04-15T08:51:16.000Z,34.5
2018-04-15T08:53:16.000Z,34.2
2018-04-15T08:55:16.000Z,34
2018-04-15T08:56:16.000Z,34.3
2018-04-15T08:57:16.000Z,34.6
2018-04-15T08:59:16.000Z,34.7
2018-04-15T09:00:16.000Z,34.6
2018-04-15T09:02:16.000Z,35
2018-04-15T09:04:16.000Z,35.1
2018-04-15T09:05:16.000Z,35
2018-04-15T09:06:16.000Z,34.9
2018-04-15T09:08:01.000Z,34.5
2018-04-15T09:09:16.000Z,34.2
2018-04-15T09:10:16.000Z,34
2018-04-15T09:12:16.000Z,33.7
2018-04-15T09:14:16.000Z,33.2
2018-04-15T09:15:16.000Z,33
2018-04-15T09:17:16.000Z,32.6
2018-04-15T09:19:16.000Z,32.2
2018-04-15T09:21:16.000Z,31.9
2018-04-15T09:23:16.000Z,31.6
2018-04-15T09:25:16.000Z,31.3
2018-04-15T09:26:16.000Z,31.2
2018-04-15T09:28:16.000Z,31.1
2018-04-15T09:30:16.000Z,31
2018-04-15T09:31:16.000Z,31
2018-04-15T09:32:16.000Z,31
2018-04-15T09:34:01.000Z,31
2018-04-15T09:35:16.000Z,30.9
2018-04-15T09:37:16.000Z,30.8
2018-04-15T09:39:16.000Z,30.8
2018-04-15T09:41:16.000Z,30.6
2018-04-15T09:43:16.000Z,30.5
2018-04-15T09:45:16.000Z,30.5
2018-04-15T09:47:16.000Z,30.4
2018-04-15T09:48:16.000Z,30.4
2018-04-15T09:50:16.000Z,30.5
2018-04-15T09:51:16.000Z,30.5
2018-04-15T09:53:01.000Z,30.5
2018-04-15T09:54:16.000Z,30.5
2018-04-15T09:55:16.000Z,30.5
2018-04-15T09:56:16.000Z,30.5
2018-04-15T09:58:01.000Z,30.5
2018-04-15T09:59:16.000Z,30.5
2018-04-15T10:01:16.000Z,30.4
2018-04-15T10:02:16.000Z,30.4
2018-04-15T10:04:16.000Z,30.3
2018-04-15T10:06:01.000Z,30.4
2018-04-15T10:07:16.000Z,30.3
2018-04-15T10:08:16.000Z,30.3
2018-04-15T10:09:16.000Z,30.4
2018-04-15T10:10:16.000Z,30.4
2018-04-15T10:11:16.000Z,30.5
2018-04-15T10:13:16.000Z,30.5
2018-04-15T10:14:16.000Z,30.5
2018-04-15T10:16:16.000Z,30.5
2018-04-15T10:18:16.000Z,30.4
2018-04-15T10:20:16.000Z,30.3
2018-04-15T10:21:16.000Z,30.3
2018-04-15T10:23:16.000Z,30.3
2018-04-15T10:24:16.000Z,30.3
2018-04-15T10:26:16.000Z,30.3
2018-04-15T10:27:16.000Z,30.3
2018-04-15T10:29:16.000Z,30.3
2018-04-15T10:30:16.000Z,30.3
2018-04-15T10:32:16.000Z,30.4
2018-04-15T10:33:16.000Z,30.4
2018-04-15T10:35:01.000Z,30.4
2018-04-15T10:36:16.000Z,30.3
2018-04-15T10:37:16.000Z,30.3
2018-04-15T10:39:16.000Z,30.2
2018-04-15T10:40:16.000Z,30.2
2018-04-15T10:42:16.000Z,30.2
2018-04-15T10:44:16.000Z,30.1
2018-04-15T10:45:16.000Z,30.1
2018-04-15T10:47:16.000Z,30.1
2018-04-15T10:48:16.000Z,30.1
2018-04-15T10:49:16.000Z,30.2
2018-04-15T10:51:16.000Z,30.2
2018-04-15T10:53:16.000Z,30.2
2018-04-15T10:54:16.000Z,30.2
2018-04-15T10:56:01.000Z,30.2
2018-04-15T10:57:16.000Z,30.2
2018-04-15T10:58:16.000Z,30.2
2018-04-15T10:59:16.000Z,30.2
2018-04-15T11:00:16.000Z,30.3
2018-04-15T11:02:16.000Z,30.3
2018-04-15T11:04:16.000Z,30.3
2018-04-15T11:06:16.000Z,30.3
2018-04-15T11:07:16.000Z,30.3
2018-04-15T11:08:16.000Z,30.3
2018-04-15T11:09:16.000Z,30.3
2018-04-15T11:11:16.000Z,30.3
2018-04-15T11:13:16.000Z,30.3
2018-04-15T11:14:16.000Z,30.2
2018-04-15T11:16:16.000Z,30.2
2018-04-15T11:17:16.000Z,30.3
2018-04-15T11:18:16.000Z,30.3
2018-04-15T11:20:16.000Z,30.3
2018-04-15T11:22:16.000Z,30.3
2018-04-15T11:23:16.000Z,30.2
2018-04-15T11:24:16.000Z,30.3
2018-04-15T11:25:16.000Z,30.3
2018-04-15T11:27:01.000Z,30.3
2018-04-15T11:28:16.000Z,30.2
2018-04-15T11:30:16.000Z,30.2
2018-04-15T11:32:16.000Z,30.1
2018-04-15T11:34:16.000Z,30.1
2018-04-15T11:35:16.000Z,30.1
2018-04-15T11:36:16.000Z,30.1
2018-04-15T11:38:16.000Z,30.1
2018-04-15T11:39:16.000Z,30.1
2018-04-15T11:41:16.000Z,30.1
2018-04-15T11:43:16.000Z,30.1
2018-04-15T11:45:16.000Z,30
2018-04-15T11:47:01.000Z,30
2018-04-15T11:48:16.000Z,30
2018-04-15T11:50:16.000Z,30
2018-04-15T11:52:16.000Z,30
2018-04-15T11:53:16.000Z,30
2018-04-15T11:55:16.000Z,30
2018-04-15T11:57:16.000Z,30
2018-04-15T11:59:16.000Z,30
2018-04-15T12:01:16.000Z,29.9
2018-04-15T12:02:16.000Z,29.9
2018-04-15T12:03:16.000Z,29.9
2018-04-15T12:04:16.000Z,30
2018-04-15T12:06:16.000Z,30
2018-04-15T12:08:16.000Z,30
2018-04-15T12:09:16.000Z,30
2018-04-15T12:11:16.000Z,30.1
2018-04-15T12:13:16.000Z,30.1
2018-04-15T12:14:16.000Z,30.1
2018-04-15T12:15:16.000Z,30.1
2018-04-15T12:17:16.000Z,30.2
2018-04-15T12:19:16.000Z,30.2
2018-04-15T12:21:16.000Z,30.2
2018-04-15T12:22:16.000Z,30.2
2018-04-15T12:24:16.000Z,30.2
2018-04-15T12:26:00.000Z,30.2
2018-04-15T12:27:16.000Z,30.2
2018-04-15T12:29:00.000Z,30.2
2018-04-15T12:30:16.000Z,30.1
2018-04-15T12:32:00.000Z,30.1
2018-04-15T12:33:16.000Z,30.1
2018-04-15T12:34:16.000Z,30.1
2018-04-15T12:35:16.000Z,30.1
2018-04-15T12:37:16.000Z,30.2
2018-04-15T12:38:16.000Z,30.2
2018-04-15T12:40:16.000Z,30.3
2018-04-15T12:42:16.000Z,30.3
2018-04-15T12:43:16.000Z,30.3
2018-04-15T12:44:16.000Z,30.3
2018-04-15T12:46:16.000Z,30.4
2018-04-15T12:48:16.000Z,30.3
2018-04-15T12:49:16.000Z,30.2
2018-04-15T12:50:16.000Z,30.2
2018-04-15T12:51:16.000Z,30.2
2018-04-15T12:53:16.000Z,30.3
2018-04-15T12:55:16.000Z,30.3
2018-04-15T12:56:16.000Z,30.3
2018-04-15T12:58:16.000Z,30.3
2018-04-15T13:00:00.000Z,30.2
2018-04-15T13:01:16.000Z,30.2
2018-04-15T13:02:16.000Z,30.2
2018-04-15T13:03:16.000Z,30.3
2018-04-15T13:04:16.000Z,30.3
2018-04-15T13:05:16.000Z,30.4
2018-04-15T13:07:16.000Z,30.4
2018-04-15T13:08:16.000Z,30.4
2018-04-15T13:10:16.000Z,30.4
2018-04-15T13:11:16.000Z,30.4
2018-04-15T13:12:16.000Z,30.4
2018-04-15T13:14:16.000Z,30.4
2018-04-15T13:16:16.000Z,30.2
2018-04-15T13:18:16.000Z,30.1
2018-04-15T13:20:16.000Z,30.1
2018-04-15T13:22:16.000Z,30
2018-04-15T13:23:16.000Z,30
2018-04-15T13:25:16.000Z,30
2018-04-15T13:26:16.000Z,30.1
2018-04-15T13:28:16.000Z,30.1
2018-04-15T13:29:16.000Z,30.1
2018-04-15T13:31:16.000Z,30.2
2018-04-15T13:32:16.000Z,30.2
2018-04-15T13:34:16.000Z,30.2
2018-04-15T13:36:16.000Z,30.2
2018-04-15T13:38:01.000Z,30.1
2018-04-15T13:39:16.000Z,30.1
2018-04-15T13:41:16.000Z,30.1
2018-04-15T13:43:16.000Z,30.1
2018-04-15T13:45:16.000Z,30
2018-04-15T13:47:16.000Z,29.9
2018-04-15T13:49:16.000Z,29.9
2018-04-15T13:51:16.000Z,29.8
2018-04-15T13:53:16.000Z,29.9
2018-04-15T13:55:16.000Z,29.9
2018-04-15T13:56:16.000Z,29.9
2018-04-15T13:57:16.000Z,29.9
2018-04-15T13:58:16.000Z,30
2018-04-15T14:00:16.000Z,30
2018-04-15T14:02:01.000Z,30
2018-04-15T14:03:16.000Z,29.9
2018-04-15T14:04:16.000Z,29.9
2018-04-15T14:06:16.000Z,30
2018-04-15T14:08:16.000Z,30
2018-04-15T14:10:16.000Z,30
2018-04-15T14:11:16.000Z,30
2018-04-15T14:12:16.000Z,30
2018-04-15T14:14:01.000Z,30.1
2018-04-15T14:15:16.000Z,30
2018-04-15T14:17:16.000Z,30
2018-04-15T14:19:16.000Z,30.2
2018-04-15T14:20:16.000Z,30.3
2018-04-15T14:21:16.000Z,30.5
2018-04-15T14:23:16.000Z,30.6
2018-04-15T14:24:16.000Z,30.6
2018-04-15T14:26:16.000Z,30.7
2018-04-15T14:28:16.000Z,30.7
2018-04-15T14:30:01.000Z,30.7
2018-04-15T14:31:16.000Z,30.7
2018-04-15T14:32:16.000Z,30.8
2018-04-15T14:34:16.000Z,30.9
2018-04-15T14:35:16.000Z,30.9
2018-04-15T14:36:16.000Z,31
2018-04-15T14:38:16.000Z,31
2018-04-15T14:40:16.000Z,31
2018-04-15T14:42:16.000Z,31
2018-04-15T14:44:16.000Z,31.1
2018-04-15T14:45:16.000Z,31.1
2018-04-15T14:47:16.000Z,31.2
2018-04-15T14:48:16.000Z,31.3
2018-04-15T14:50:16.000Z,31.3
2018-04-15T14:51:16.000Z,31.3
2018-04-15T14:52:16.000Z,31.3
2018-04-15T14:53:16.000Z,31.3
2018-04-15T14:55:16.000Z,31.3
2018-04-15T14:57:01.000Z,31.3
2018-04-15T14:58:16.000Z,31.2
2018-04-15T15:00:16.000Z,31.2
2018-04-15T15:02:16.000Z,31.1
2018-04-15T15:04:16.000Z,31.1
2018-04-15T15:05:16.000Z,31.1
2018-04-15T15:06:16.000Z,31.2
2018-04-15T15:08:16.000Z,31.1
2018-04-15T15:09:16.000Z,31.1
2018-04-15T15:10:16.000Z,31.2
2018-04-15T15:12:16.000Z,31.2
2018-04-15T15:14:16.000Z,31.1
2018-04-15T15:15:16.000Z,31.1
2018-04-15T15:16:16.000Z,31.1
2018-04-15T15:17:16.000Z,31.1
2018-04-15T15:19:16.000Z,31.2
2018-04-15T15:21:01.000Z,31.2
2018-04-15T15:22:16.000Z,31.2
2018-04-15T15:24:16.000Z,31.1
2018-04-15T15:26:16.000Z,31
2018-04-15T15:27:16.000Z,31
2018-04-15T15:28:16.000Z,31
2018-04-15T15:29:16.000Z,31.1
2018-04-15T15:31:16.000Z,31.1
2018-04-15T15:32:16.000Z,31.2
2018-04-15T15:33:16.000Z,31.2
2018-04-15T15:35:16.000Z,31.2
2018-04-15T15:36:16.000Z,31.2
2018-04-15T15:37:16.000Z,31.2
2018-04-15T15:38:16.000Z,31.3
2018-04-15T15:40:16.000Z,31.3
2018-04-15T15:42:16.000Z,31.2
2018-04-15T15:43:16.000Z,31.2
2018-04-15T15:45:16.000Z,31.2
2018-04-15T15:47:16.000Z,31.1
2018-04-15T15:49:16.000Z,31.1
2018-04-15T15:51:16.000Z,31
2018-04-15T15:52:16.000Z,31
2018-04-15T15:54:16.000Z,31
2018-04-15T15:56:16.000Z,30.9
2018-04-15T15:57:16.000Z,30.9
2018-04-15T15:59:16.000Z,31
2018-04-15T16:00:16.000Z,31
2018-04-15T16:02:16.000Z,31
2018-04-15T16:04:00.000Z,31
2018-04-15T16:05:16.000Z,31
2018-04-15T16:06:16.000Z,31
2018-04-15T16:08:16.000Z,31
2018-04-15T16:10:16.000Z,31
2018-04-15T16:12:16.000Z,30.9
2018-04-15T16:13:16.000Z,30.9
2018-04-15T16:14:16.000Z,30.9
2018-04-15T16:16:16.000Z,30.9
2018-04-15T16:18:16.000Z,30.9
2018-04-15T16:19:16.000Z,30.9
2018-04-15T16:21:16.000Z,30.9
2018-04-15T16:23:16.000Z,30.8
2018-04-15T16:25:16.000Z,30.7
2018-04-15T16:27:16.000Z,30.6
2018-04-15T16:28:16.000Z,30.6
2018-04-15T16:30:01.000Z,30.6
2018-04-15T16:31:16.000Z,30.6
2018-04-15T16:32:16.000Z,30.6
2018-04-15T16:33:16.000Z,30.7
2018-04-15T16:34:16.000Z,30.7
2018-04-15T16:36:16.000Z,30.8
2018-04-15T16:37:16.000Z,30.8
2018-04-15T16:39:16.000Z,30.9
2018-04-15T16:40:16.000Z,30.9
2018-04-15T16:42:01.000Z,30.9
2018-04-15T16:43:16.000Z,30.8
2018-04-15T16:45:16.000Z,30.8
2018-04-15T16:47:16.000Z,30.7
2018-04-15T16:49:16.000Z,30.7
2018-04-15T16:51:16.000Z,30.6
2018-04-15T16:52:16.000Z,30.5
2018-04-15T16:54:16.000Z,30.6
2018-04-15T16:56:01.000Z,30.6
2018-04-15T16:57:16.000Z,30.5
2018-04-15T16:58:16.000Z,30.5
2018-04-15T16:59:16.000Z,30.6
2018-04-15T17:01:16.000Z,30.6
2018-04-15T17:03:16.000Z,30.6
2018-04-15T17:05:16.000Z,30.5
2018-04-15T17:06:16.000Z,30.5
2018-04-15T17:08:16.000Z,30.4
2018-04-15T17:10:16.000Z,30.4
2018-04-15T17:11:16.000Z,30.4
2018-04-15T17:13:16.000Z,30.4
2018-04-15T17:15:16.000Z,30.3
2018-04-15T17:16:16.000Z,30.3
2018-04-15T17:17:16.000Z,30.3
2018-04-15T17:18:16.000Z,30.3
2018-04-15T17:20:16.000Z,30.3
2018-04-15T17:21:16.000Z,30.3
2018-04-15T17:23:16.000Z,30.3
2018-04-15T17:24:16.000Z,30.3
2018-04-15T17:25:16.000Z,30.3
2018-04-15T17:26:16.000Z,30.3
2018-04-15T17:28:16.000Z,30.3
2018-04-15T17:29:16.000Z,30.3
2018-04-15T17:31:16.000Z,30.3
2018-04-15T17:32:16.000Z,30.3
2018-04-15T17:34:16.000Z,30.2
2018-04-15T17:36:16.000Z,30.2
2018-04-15T17:37:16.000Z,30.1
2018-04-15T17:39:16.000Z,30.1
2018-04-15T17:41:01.000Z,30.1
2018-04-15T17:42:16.000Z,30.1
2018-04-15T17:44:16.000Z,30
2018-04-15T17:45:16.000Z,30
2018-04-15T17:47:16.000Z,30
2018-04-15T17:49:16.000Z,30
2018-04-15T17:51:16.000Z,29.9
2018-04-15T17:52:16.000Z,29.9
2018-04-15T17:53:16.000Z,30
2018-04-15T17:55:16.000Z,30
2018-04-15T17:57:16.000Z,29.9
2018-04-15T17:58:16.000Z,29.9
2018-04-15T18:00:01.000Z,29.9
2018-04-15T18:01:16.000Z,29.9
2018-04-15T18:03:16.000Z,29.9
2018-04-15T18:04:16.000Z,29.9
2018-04-15T18:05:16.000Z,29.9
2018-04-15T18:07:16.000Z,30
2018-04-15T18:08:16.000Z,29.9
2018-04-15T18:10:16.000Z,29.9
2018-04-15T18:11:16.000Z,29.9
2018-04-15T18:12:16.000Z,30
2018-04-15T18:14:16.000Z,30
2018-04-15T18:16:16.000Z,29.9
2018-04-15T18:18:16.000Z,29.8
2018-04-15T18:20:16.000Z,29.8
2018-04-15T18:22:16.000Z,29.7
2018-04-15T18:23:16.000Z,29.7
2018-04-15T18:25:16.000Z,29.8
2018-04-15T18:26:16.000Z,29.8
2018-04-15T18:28:16.000Z,29.8
2018-04-15T18:30:16.000Z,29.8
2018-04-15T18:31:16.000Z,29.8
2018-04-15T18:33:16.000Z,29.8
2018-04-15T18:34:16.000Z,29.8
2018-04-15T18:36:16.000Z,29.8
2018-04-15T18:37:16.000Z,29.9
2018-04-15T18:39:16.000Z,29.9
2018-04-15T18:40:16.000Z,29.9
2018-04-15T18:42:16.000Z,29.9
2018-04-15T18:43:16.000Z,29.9
2018-04-15T18:44:16.000Z,29.9
2018-04-15T18:45:16.000Z,29.9
2018-04-15T18:47:16.000Z,29.9
2018-04-15T18:49:16.000Z,29.9
2018-04-15T18:50:16.000Z,29.9
2018-04-15T18:52:16.000Z,29.9
2018-04-15T18:53:16.000Z,29.9
2018-04-15T18:55:16.000Z,29.9
2018-04-15T18:57:01.000Z,29.8
2018-04-15T18:58:16.000Z,29.8
2018-04-15T19:00:16.000Z,29.7
2018-04-15T19:01:16.000Z,29.6
2018-04-15T19:02:16.000Z,29.7
2018-04-15T19:04:16.000Z,29.7
2018-04-15T19:05:16.000Z,29.7
2018-04-15T19:07:01.000Z,29.7
2018-04-15T19:08:16.000Z,29.6
2018-04-15T19:10:16.000Z,29.6
2018-04-15T19:11:16.000Z,29.6
2018-04-15T19:13:16.000Z,29.7
2018-04-15T19:15:16.000Z,29.7
2018-04-15T19:17:16.000Z,29.6
2018-04-15T19:18:16.000Z,29.6
2018-04-15T19:19:16.000Z,29.7
2018-04-15T19:20:16.000Z,29.7
2018-04-15T19:22:16.000Z,29.7
2018-04-15T19:24:16.000Z,29.7
2018-04-15T19:25:16.000Z,29.7
2018-04-15T19:27:16.000Z,29.7
2018-04-15T19:28:16.000Z,29.7
2018-04-15T19:29:16.000Z,29.8
2018-04-15T19:31:16.000Z,29.8
2018-04-15T19:33:16.000Z,29.7
2018-04-15T19:34:16.000Z,29.7
2018-04-15T19:36:16.000Z,29.7
2018-04-15T19:38:16.000Z,29.6
2018-04-15T19:39:16.000Z,29.6
2018-04-15T19:41:16.000Z,29.6
2018-04-15T19:43:16.000Z,29.6
2018-04-15T19:44:16.000Z,29.6
2018-04-15T19:46:16.000Z,29.6
2018-04-15T19:47:16.000Z,29.6
2018-04-15T19:49:16.000Z,29.7
2018-04-15T19:51:01.000Z,29.7
2018-04-15T19:52:16.000Z,29.6
2018-04-15T19:54:16.000Z,29.6
2018-04-15T19:55:16.000Z,29.6
2018-04-15T19:56:16.000Z,29.6
2018-04-15T19:57:16.000Z,29.6
2018-04-15T19:59:16.000Z,29.6
2018-04-15T20:01:16.000Z,29.6
2018-04-15T20:03:16.000Z,29.6
2018-04-15T20:05:16.000Z,29.5
2018-04-15T20:06:16.000Z,29.5
2018-04-15T20:08:16.000Z,29.6
2018-04-15T20:10:16.000Z,29.5
2018-04-15T20:11:16.000Z,29.5
2018-04-15T20:13:01.000Z,29.5
2018-04-15T20:14:16.000Z,29.5
2018-04-15T20:15:16.000Z,29.5
2018-04-15T20:17:16.000Z,29.5
2018-04-15T20:19:16.000Z,29.5
2018-04-15T20:20:16.000Z,29.5
2018-04-15T20:22:01.000Z,29.5
2018-04-15T20:23:16.000Z,29.5
2018-04-15T20:24:16.000Z,29.5
2018-04-15T20:26:16.000Z,29.5
2018-04-15T20:27:16.000Z,29.5
2018-04-15T20:28:16.000Z,29.5
2018-04-15T20:30:16.000Z,29.5
2018-04-15T20:31:16.000Z,29.5
2018-04-15T20:33:16.000Z,29.6
2018-04-15T20:34:16.000Z,29.6
2018-04-15T20:36:16.000Z,29.6
2018-04-15T20:38:01.000Z,29.6
2018-04-15T20:39:16.000Z,29.5
2018-04-15T20:41:16.000Z,29.5
2018-04-15T20:42:16.000Z,29.5
2018-04-15T20:44:16.000Z,29.5
2018-04-15T20:45:16.000Z,29.5
2018-04-15T20:47:16.000Z,29.5
2018-04-15T20:48:16.000Z,29.4
2018-04-15T20:49:16.000Z,29.5
2018-04-15T20:50:16.000Z,29.5
2018-04-15T20:52:16.000Z,29.6
2018-04-15T20:53:16.000Z,29.6
2018-04-15T20:55:16.000Z,29.6
2018-04-15T20:56:16.000Z,29.6
2018-04-15T20:58:16.000Z,29.6
2018-04-15T21:00:16.000Z,29.5
2018-04-15T21:02:16.000Z,29.4
2018-04-15T21:03:16.000Z,29.4